Time;durP1;ratioP1;P1;durP2;ratioP2;P2;SDS_P1;SDS_P2;PMS_P1;PMS_P2;Temp;Humidity;BMP_temperature;BMP_pressure;BME280_temperature;BME280_humidity;BME280_pressure;Samples;Min_cycle;Max_cycle;Signal;HPM_P1;HPM_P2
2023/06/09 00:02:11;;;;;;;5.90;5.40;;;16.50;99.90;;;;;;6350164;27;20498;-61
2023/06/09 00:05:15;;;;;;;5.80;5.30;;;16.50;99.90;;;;;;6350264;28;20474;-60
2023/06/09 00:08:19;;;;;;;5.57;5.17;;;16.50;99.90;;;;;;6349942;28;20471;-61
2023/06/09 00:11:24;;;;;;;6.80;4.60;;;16.50;99.90;;;;;;6349814;28;20959;-61
2023/06/09 00:14:27;;;;;;;5.00;4.60;;;16.50;99.90;;;;;;6350001;28;20965;-60
2023/06/09 00:17:30;;;;;;;5.83;5.00;;;16.50;99.90;;;;;;6348966;28;20464;-60
2023/06/09 00:20:34;;;;;;;7.00;5.00;;;16.40;99.90;;;;;;6338326;28;21044;-60
2023/06/09 00:23:37;;;;;;;5.30;4.80;;;16.50;99.90;;;;;;6324196;28;20490;-60
2023/06/09 00:26:42;;;;;;;5.30;4.80;;;16.50;99.90;;;;;;6324122;28;20464;-60
2023/06/09 00:29:45;;;;;;;6.83;4.60;;;16.40;99.90;;;;;;6324521;28;20483;-60
2023/06/09 00:32:48;;;;;;;5.60;4.93;;;16.40;99.90;;;;;;6323717;28;20478;-60
2023/06/09 00:35:51;;;;;;;4.80;4.27;;;16.30;99.90;;;;;;6323858;28;20475;-61
2023/06/09 00:38:54;;;;;;;5.07;4.57;;;16.30;99.90;;;;;;6324698;28;20510;-61
2023/06/09 00:41:59;;;;;;;5.63;5.13;;;16.30;99.90;;;;;;6324399;28;20480;-61
2023/06/09 00:45:02;;;;;;;5.03;4.53;;;16.10;99.90;;;;;;6314357;28;20561;-60
2023/06/09 00:48:06;;;;;;;7.70;5.70;;;16.20;99.90;;;;;;6324296;28;20948;-61
2023/06/09 00:51:10;;;;;;;5.40;5.00;;;16.20;99.90;;;;;;6323769;28;20500;-61
2023/06/09 00:54:14;;;;;;;6.27;5.77;;;16.20;99.90;;;;;;6323732;28;20814;-61
2023/06/09 00:57:19;;;;;;;6.30;5.70;;;16.10;99.90;;;;;;6323734;28;20582;-61
2023/06/09 01:00:26;;;;;;;6.97;5.13;;;16.10;99.90;;;;;;6323291;28;20468;-60
2023/06/09 01:03:32;;;;;;;5.33;4.83;;;16.10;99.90;;;;;;6323582;28;20465;-60
2023/06/09 01:06:45;;;;;;;7.00;5.80;;;16.10;99.90;;;;;;6323654;28;20755;-61
2023/06/09 01:09:56;;;;;;;5.90;5.40;;;16.10;99.90;;;;;;6323720;28;20483;-60
2023/06/09 01:13:11;;;;;;;6.07;5.50;;;16.10;99.90;;;;;;6323735;28;20954;-60
2023/06/09 01:16:20;;;;;;;5.43;4.93;;;16.10;99.90;;;;;;6323465;28;20469;-60
2023/06/09 01:19:31;;;;;;;5.37;4.97;;;16.00;99.90;;;;;;6323886;28;20472;-60
2023/06/09 01:22:44;;;;;;;5.73;5.23;;;16.00;99.90;;;;;;6324268;28;20518;-59
2023/06/09 01:25:52;;;;;;;5.33;5.00;;;15.90;99.90;;;;;;6324046;28;20790;-59
2023/06/09 01:28:56;;;;;;;6.00;5.50;;;15.90;99.90;;;;;;6323673;28;20766;-59
2023/06/09 01:32:02;;;;;;;5.63;5.23;;;15.90;99.90;;;;;;6328233;28;20456;-59
2023/06/09 01:35:06;;;;;;;4.60;4.30;;;15.90;99.90;;;;;;6328097;28;20532;-59
2023/06/09 01:38:11;;;;;;;5.77;5.27;;;15.90;99.90;;;;;;6328050;28;20820;-59
2023/06/09 01:41:15;;;;;;;6.17;5.67;;;15.80;99.90;;;;;;6327883;28;20486;-58
2023/06/09 01:44:19;;;;;;;6.03;5.47;;;15.80;99.90;;;;;;6328013;28;20479;-58
2023/06/09 01:47:22;;;;;;;5.77;5.27;;;15.70;99.90;;;;;;6328001;28;20986;-58
2023/06/09 01:50:34;;;;;;;7.53;5.33;;;15.70;99.90;;;;;;6328321;28;20468;-59
2023/06/09 01:53:40;;;;;;;5.33;4.90;;;15.70;99.90;;;;;;6328054;28;20568;-59
2023/06/09 01:56:47;;;;;;;5.83;5.30;;;15.70;99.90;;;;;;6328204;28;20613;-59
2023/06/09 01:59:55;;;;;;;6.17;5.57;;;15.70;99.90;;;;;;6328200;28;20476;-59
2023/06/09 02:03:01;;;;;;;7.93;5.20;;;15.70;99.90;;;;;;6327259;28;20986;-59
2023/06/09 02:06:06;;;;;;;5.77;5.20;;;15.60;99.90;;;;;;6327353;28;20817;-59
2023/06/09 02:09:10;;;;;;;5.63;5.23;;;15.60;99.90;;;;;;6327194;28;20928;-59
2023/06/09 02:12:14;;;;;;;4.60;4.30;;;15.60;99.90;;;;;;6327310;28;20465;-59
2023/06/09 02:15:19;;;;;;;5.80;4.83;;;15.60;99.90;;;;;;6327431;28;20543;-60
2023/06/09 02:18:22;;;;;;;5.23;4.63;;;15.50;99.90;;;;;;6327022;28;20468;-60
2023/06/09 02:21:25;;;;;;;5.00;4.70;;;15.50;99.90;;;;;;6327003;28;20480;-60
2023/06/09 02:24:29;;;;;;;4.97;4.33;;;15.50;99.90;;;;;;6327193;28;20483;-60
2023/06/09 02:27:33;;;;;;;4.83;4.43;;;15.40;99.90;;;;;;6326550;28;20487;-60
2023/06/09 02:30:37;;;;;;;5.30;4.90;;;15.40;99.90;;;;;;6326799;28;20469;-61
2023/06/09 02:33:40;;;;;;;4.40;4.10;;;15.40;99.90;;;;;;6326691;28;20471;-60
2023/06/09 02:36:44;;;;;;;4.33;4.03;;;15.30;99.90;;;;;;6327342;28;20475;-60
2023/06/09 02:39:47;;;;;;;4.90;4.50;;;15.40;99.90;;;;;;6326741;28;20468;-60
2023/06/09 02:42:52;;;;;;;5.17;4.70;;;15.30;99.90;;;;;;6325924;28;20468;-60
2023/06/09 02:45:55;;;;;;;5.30;4.07;;;15.30;99.90;;;;;;6326262;28;20477;-60
2023/06/09 02:48:58;;;;;;;5.90;4.00;;;15.30;99.90;;;;;;6326420;28;20762;-60
2023/06/09 02:52:01;;;;;;;5.00;4.60;;;15.40;99.90;;;;;;6326601;28;20474;-60
2023/06/09 02:55:05;;;;;;;5.67;4.23;;;15.40;99.90;;;;;;6326171;28;20478;-60
2023/06/09 02:58:14;;;;;;;4.40;4.10;;;15.30;99.90;;;;;;6326198;28;20464;-60
2023/06/09 03:01:17;;;;;;;3.90;3.53;;;15.30;99.90;;;;;;6326013;28;20555;-60
2023/06/09 03:04:21;;;;;;;3.77;3.17;;;15.20;99.90;;;;;;6326087;28;20566;-60
2023/06/09 03:07:24;;;;;;;4.60;4.30;;;15.30;99.90;;;;;;6325909;28;20464;-60
2023/06/09 03:10:27;;;;;;;3.97;3.60;;;15.20;99.90;;;;;;6325374;28;20486;-61
2023/06/09 03:13:32;;;;;;;3.63;3.33;;;15.30;99.90;;;;;;6325767;28;20480;-60
2023/06/09 03:16:35;;;;;;;4.37;4.07;;;15.20;99.90;;;;;;6325627;28;20444;-60
2023/06/09 03:19:38;;;;;;;4.47;4.17;;;15.20;99.90;;;;;;6325419;28;20557;-60
2023/06/09 03:22:41;;;;;;;4.87;4.57;;;15.20;99.90;;;;;;6325804;28;20447;-60
2023/06/09 03:25:44;;;;;;;4.70;4.30;;;15.20;99.90;;;;;;6325810;28;20605;-60
2023/06/09 03:28:49;;;;;;;5.07;4.57;;;15.20;99.90;;;;;;6325490;28;20440;-60
2023/06/09 03:31:52;;;;;;;4.47;4.00;;;15.20;99.90;;;;;;6325200;28;20467;-61
2023/06/09 03:34:56;;;;;;;5.10;4.70;;;15.20;99.90;;;;;;6325217;28;20471;-61
2023/06/09 03:38:00;;;;;;;4.37;3.97;;;15.20;99.90;;;;;;6325157;28;20550;-61
2023/06/09 03:41:03;;;;;;;4.70;4.30;;;15.30;99.90;;;;;;6325389;28;20468;-61
2023/06/09 03:44:08;;;;;;;4.10;3.70;;;15.20;99.90;;;;;;6325327;28;20547;-61
2023/06/09 03:47:11;;;;;;;4.17;3.77;;;15.30;99.90;;;;;;6325032;28;20479;-61
2023/06/09 03:50:14;;;;;;;4.33;4.03;;;15.30;99.90;;;;;;6324838;28;20892;-60
2023/06/09 03:53:17;;;;;;;3.47;3.27;;;15.40;99.90;;;;;;6324855;28;20504;-60
2023/06/09 03:56:21;;;;;;;4.33;3.83;;;15.40;99.90;;;;;;6311124;28;20476;-60
2023/06/09 03:59:25;;;;;;;4.53;4.23;;;15.50;99.90;;;;;;6325193;28;20873;-60
2023/06/09 04:02:28;;;;;;;4.40;4.10;;;15.40;99.90;;;;;;6325283;28;20605;-60
2023/06/09 04:05:32;;;;;;;4.73;4.40;;;15.50;99.90;;;;;;6324204;28;20484;-60
2023/06/09 04:08:36;;;;;;;4.83;4.43;;;15.60;99.90;;;;;;6324652;28;20471;-60
2023/06/09 04:11:39;;;;;;;4.73;4.33;;;15.60;99.90;;;;;;6324518;28;20476;-60
2023/06/09 04:14:45;;;;;;;4.30;3.90;;;15.60;99.90;;;;;;6324762;28;20495;-61
2023/06/09 04:17:51;;;;;;;4.90;4.40;;;15.70;99.90;;;;;;6324571;28;20511;-60
2023/06/09 04:20:57;;;;;;;4.77;4.37;;;15.80;99.90;;;;;;6324289;28;20468;-60
2023/06/09 04:24:00;;;;;;;7.13;4.30;;;15.90;99.90;;;;;;6324220;28;20617;-60
2023/06/09 04:27:04;;;;;;;4.37;3.97;;;16.00;99.90;;;;;;6324102;28;20468;-61
2023/06/09 04:30:10;;;;;;;4.50;4.20;;;16.00;99.90;;;;;;6324396;28;20895;-60
2023/06/09 04:33:13;;;;;;;4.27;3.87;;;16.20;99.90;;;;;;6324410;28;20850;-61
2023/06/09 04:36:17;;;;;;;4.60;4.20;;;16.30;99.90;;;;;;6324573;28;20474;-61
2023/06/09 04:39:20;;;;;;;4.77;4.27;;;16.40;99.90;;;;;;6323989;28;20472;-60
2023/06/09 04:42:24;;;;;;;4.80;4.30;;;16.50;99.90;;;;;;6324220;28;20468;-62
2023/06/09 04:45:28;;;;;;;3.80;3.50;;;16.60;99.90;;;;;;6323668;28;20477;-61
2023/06/09 04:48:33;;;;;;;4.30;4.00;;;16.50;99.90;;;;;;6324166;28;20464;-62
2023/06/09 04:51:41;;;;;;;4.83;4.43;;;16.60;99.90;;;;;;6323780;28;20561;-60
2023/06/09 04:54:45;;;;;;;4.60;4.20;;;16.50;99.90;;;;;;6324230;28;20468;-61
2023/06/09 04:57:48;;;;;;;5.00;4.60;;;16.50;99.90;;;;;;6323725;28;20464;-61
2023/06/09 05:00:53;;;;;;;4.67;4.33;;;16.50;99.90;;;;;;6310244;28;20482;-62
2023/06/09 05:03:58;;;;;;;4.27;3.97;;;16.50;99.90;;;;;;6323836;28;20593;-62
2023/06/09 05:07:01;;;;;;;5.63;4.87;;;16.60;99.90;;;;;;6328968;28;20956;-62
2023/06/09 05:10:06;;;;;;;4.10;3.80;;;16.80;99.90;;;;;;6327786;28;20577;-62
2023/06/09 05:13:10;;;;;;;7.20;5.20;;;16.90;99.90;;;;;;6328588;28;20983;-60
2023/06/09 05:16:15;;;;;;;4.93;4.53;;;17.10;99.90;;;;;;6328560;28;20851;-60
2023/06/09 05:19:18;;;;;;;4.33;3.93;;;17.40;99.90;;;;;;6328613;28;20480;-59
2023/06/09 05:22:21;;;;;;;6.50;6.00;;;17.70;99.90;;;;;;6328389;28;20804;-61
2023/06/09 05:25:25;;;;;;;6.73;6.23;;;18.00;99.90;;;;;;6327981;28;20468;-61
2023/06/09 05:28:28;;;;;;;6.77;6.20;;;18.30;99.90;;;;;;6328306;28;20881;-61
2023/06/09 05:31:33;;;;;;;6.93;6.23;;;18.50;99.90;;;;;;6328200;28;20230;-61
2023/06/09 05:34:36;;;;;;;7.47;6.97;;;18.70;99.90;;;;;;6328159;28;20232;-61
2023/06/09 05:37:49;;;;;;;7.33;6.70;;;18.90;99.90;;;;;;6328062;28;20607;-61
2023/06/09 05:40:52;;;;;;;7.53;6.73;;;19.10;99.90;;;;;;6327927;28;20513;-61
2023/06/09 05:43:57;;;;;;;7.97;7.37;;;19.20;99.90;;;;;;6327380;28;20240;-61
2023/06/09 05:47:02;;;;;;;8.90;8.10;;;19.30;99.90;;;;;;6327984;28;20230;-61
2023/06/09 05:50:06;;;;;;;9.40;8.60;;;19.40;99.90;;;;;;6327717;28;20227;-61
2023/06/09 05:53:10;;;;;;;10.93;9.93;;;19.40;99.90;;;;;;6328074;28;20260;-61
2023/06/09 05:56:16;;;;;;;12.10;11.00;;;19.40;99.90;;;;;;6327828;28;20240;-61
2023/06/09 05:59:20;;;;;;;11.10;10.00;;;19.40;99.90;;;;;;6327808;28;20240;-61
2023/06/09 06:02:25;;;;;;;12.17;11.07;;;19.50;99.90;;;;;;6318755;28;20258;-60
2023/06/09 06:05:29;;;;;;;11.67;10.67;;;19.50;99.90;;;;;;6327534;28;20237;-60
2023/06/09 06:08:32;;;;;;;11.10;10.00;;;19.50;99.90;;;;;;6327350;28;20665;-60
2023/06/09 06:11:35;;;;;;;13.13;11.70;;;19.60;99.90;;;;;;6326986;28;20234;-60
2023/06/09 06:14:38;;;;;;;12.93;10.70;;;19.90;99.90;;;;;;6327025;28;20304;-60
2023/06/09 06:17:43;;;;;;;10.83;9.90;;;20.20;99.90;;;;;;6327193;28;20229;-60
2023/06/09 06:20:46;;;;;;;12.27;11.17;;;20.80;99.90;;;;;;6326871;28;20253;-61
2023/06/09 06:23:49;;;;;;;11.97;10.73;;;21.40;99.90;;;;;;6326677;28;20226;-60
2023/06/09 06:26:52;;;;;;;9.77;8.97;;;21.80;99.90;;;;;;6326723;28;20268;-60
2023/06/09 06:29:55;;;;;;;11.60;10.50;;;22.40;99.90;;;;;;6326468;28;20567;-60
2023/06/09 06:33:00;;;;;;;14.50;11.73;;;22.90;99.90;;;;;;6327007;28;20230;-60
2023/06/09 06:36:04;;;;;;;13.87;11.40;;;23.40;99.90;;;;;;6326267;28;20565;-60
2023/06/09 06:39:08;;;;;;;12.77;11.57;;;23.90;99.90;;;;;;6326742;28;20568;-60
2023/06/09 06:42:11;;;;;;;14.87;13.50;;;24.40;99.90;;;;;;6326320;28;20627;-60
2023/06/09 06:45:15;;;;;;;14.80;13.60;;;24.50;99.90;;;;;;6325832;28;20234;-60
2023/06/09 06:48:19;;;;;;;15.90;14.40;;;25.00;99.90;;;;;;6325854;28;20566;-60
2023/06/09 06:51:22;;;;;;;16.00;14.40;;;25.10;99.40;;;;;;6326151;28;20252;-60
2023/06/09 06:54:26;;;;;;;14.77;13.50;;;25.50;99.10;;;;;;6326784;28;20304;-60
2023/06/09 06:57:29;;;;;;;17.03;15.60;;;26.20;98.10;;;;;;6334917;28;20621;-60
2023/06/09 07:00:35;;;;;;;15.03;13.83;;;26.50;96.70;;;;;;6340604;28;20227;-61
2023/06/09 07:03:40;;;;;;;13.93;12.83;;;26.90;96.20;;;;;;6326159;28;20308;-61
2023/06/09 07:06:43;;;;;;;14.83;13.53;;;27.70;94.60;;;;;;6321443;28;20228;-61
2023/06/09 07:09:46;;;;;;;15.10;13.00;;;28.10;93.50;;;;;;6325777;28;20248;-62
2023/06/09 07:12:49;;;;;;;11.97;10.97;;;28.40;92.20;;;;;;6316468;28;20572;-63
2023/06/09 07:15:52;;;;;;;12.37;11.27;;;28.90;91.60;;;;;;6313626;28;20308;-62
2023/06/09 07:18:57;;;;;;;12.47;11.20;;;29.60;90.30;;;;;;6317339;28;20213;-62
2023/06/09 07:22:00;;;;;;;11.70;10.70;;;30.50;86.20;;;;;;6321539;28;20606;-61
2023/06/09 07:25:04;;;;;;;11.98;10.98;;;31.20;81.20;;;;;;6320483;28;20654;-61
2023/06/09 07:28:07;;;;;;;10.90;9.82;;;31.70;77.20;;;;;;6301323;28;20587;-61
2023/06/09 07:31:11;;;;;;;11.15;10.15;;;32.10;74.70;;;;;;6312315;28;20329;-60
2023/06/09 07:34:15;;;;;;;12.10;11.10;;;32.40;72.00;;;;;;6315846;28;20225;-60
2023/06/09 07:37:19;;;;;;;10.25;9.45;;;32.10;72.10;;;;;;6321423;28;20267;-61
2023/06/09 07:40:22;;;;;;;10.60;9.70;;;32.20;71.30;;;;;;6324770;28;20406;-62
2023/06/09 07:43:26;;;;;;;10.85;10.15;;;32.60;69.50;;;;;;6324130;28;20232;-62
2023/06/09 07:46:30;;;;;;;10.45;9.02;;;32.80;67.90;;;;;;6323961;28;20673;-61
2023/06/09 07:49:35;;;;;;;7.57;6.97;;;32.40;66.80;;;;;;6320926;28;20225;-62
2023/06/09 07:52:38;;;;;;;8.88;8.18;;;31.90;64.90;;;;;;6346489;27;20217;-62
2023/06/09 07:55:43;;;;;;;7.70;7.03;;;31.50;66.10;;;;;;6323299;28;20220;-62
2023/06/09 07:58:46;;;;;;;6.78;6.18;;;31.00;66.50;;;;;;6323639;28;20657;-62
2023/06/09 08:01:49;;;;;;;6.05;5.55;;;30.40;65.90;;;;;;6322753;28;20314;-61
2023/06/09 08:04:54;;;;;;;5.40;5.00;;;29.60;66.10;;;;;;6324422;28;20212;-61
2023/06/09 08:08:02;;;;;;;5.50;5.10;;;28.60;67.90;;;;;;6324534;28;20263;-61
2023/06/09 08:11:05;;;;;;;5.93;5.53;;;28.40;70.20;;;;;;6324488;28;20236;-61
2023/06/09 08:14:08;;;;;;;5.27;4.90;;;28.20;70.30;;;;;;6324229;28;20701;-60
2023/06/09 08:17:12;;;;;;;6.27;5.77;;;28.00;71.10;;;;;;6324361;28;20226;-60
2023/06/09 08:20:16;;;;;;;8.90;7.03;;;27.70;72.60;;;;;;6324187;28;20233;-60
2023/06/09 08:23:20;;;;;;;7.33;5.80;;;27.40;74.40;;;;;;6324149;28;20263;-60
2023/06/09 08:26:24;;;;;;;6.73;6.17;;;27.20;75.30;;;;;;6324225;28;20676;-60
2023/06/09 08:29:27;;;;;;;7.00;6.50;;;27.20;77.00;;;;;;6324106;28;20312;-61
2023/06/09 08:32:30;;;;;;;7.27;6.57;;;27.10;79.30;;;;;;6324200;28;20564;-60
2023/06/09 08:35:38;;;;;;;7.73;7.13;;;27.10;80.20;;;;;;6324184;28;20669;-60
2023/06/09 08:38:41;;;;;;;6.73;6.20;;;27.00;81.40;;;;;;6324195;28;20778;-60
2023/06/09 08:41:48;;;;;;;7.03;6.20;;;26.80;82.20;;;;;;6329082;28;20229;-60
2023/06/09 08:44:55;;;;;;;6.63;6.10;;;26.80;82.90;;;;;;6329449;28;20234;-60
2023/06/09 08:48:03;;;;;;;6.37;5.77;;;26.70;83.40;;;;;;6329347;28;20286;-60
2023/06/09 08:51:09;;;;;;;8.47;5.80;;;26.60;84.00;;;;;;6328413;28;20234;-60
2023/06/09 08:54:13;;;;;;;5.63;5.23;;;26.70;84.10;;;;;;6328908;28;20225;-60
2023/06/09 08:57:17;;;;;;;6.20;5.60;;;26.70;83.90;;;;;;6329098;28;20605;-61
2023/06/09 09:00:21;;;;;;;6.07;5.67;;;26.80;84.00;;;;;;6329189;28;20229;-60
2023/06/09 09:03:25;;;;;;;6.60;6.07;;;27.00;84.90;;;;;;6329010;28;20229;-60
2023/06/09 09:06:31;;;;;;;5.87;5.37;;;26.90;85.40;;;;;;6328646;28;20703;-60
2023/06/09 09:09:35;;;;;;;5.63;5.03;;;26.80;86.70;;;;;;6328797;28;20573;-60
2023/06/09 09:12:49;;;;;;;6.80;6.20;;;26.70;87.20;;;;;;6328596;28;20234;-60
2023/06/09 09:15:53;;;;;;;6.97;6.07;;;26.80;87.90;;;;;;6324049;28;20257;-60
2023/06/09 09:18:57;;;;;;;6.20;5.73;;;26.90;87.80;;;;;;6328566;28;20552;-60
2023/06/09 09:22:07;;;;;;;5.80;5.30;;;26.90;87.80;;;;;;6328862;28;20225;-60
2023/06/09 09:25:10;;;;;;;5.40;4.90;;;27.10;88.00;;;;;;6328383;28;20366;-60
2023/06/09 09:28:14;;;;;;;5.77;5.30;;;27.20;87.40;;;;;;6328196;28;20320;-59
2023/06/09 09:31:17;;;;;;;5.70;5.30;;;27.20;87.10;;;;;;6328208;28;20244;-61
2023/06/09 09:34:20;;;;;;;6.00;5.50;;;27.30;86.40;;;;;;6328078;28;20286;-59
2023/06/09 09:37:26;;;;;;;6.10;5.50;;;27.40;86.80;;;;;;6328373;28;20237;-59
2023/06/09 09:40:29;;;;;;;5.73;5.23;;;27.20;87.50;;;;;;6328301;28;20240;-60
2023/06/09 09:43:33;;;;;;;5.80;5.30;;;27.20;86.30;;;;;;6327484;28;20669;-59
2023/06/09 09:46:37;;;;;;;5.63;5.17;;;27.30;86.40;;;;;;6327313;28;20226;-59
2023/06/09 09:49:50;;;;;;;5.50;5.20;;;27.20;87.00;;;;;;6327999;28;20225;-60
2023/06/09 09:52:54;;;;;;;6.50;5.87;;;27.00;87.50;;;;;;6328126;28;20189;-59
2023/06/09 09:56:00;;;;;;;6.03;5.60;;;26.70;88.40;;;;;;6328354;28;20228;-59
2023/06/09 09:59:03;;;;;;;5.93;5.53;;;26.40;89.50;;;;;;6327770;28;20218;-59
2023/06/09 10:02:10;;;;;;;4.47;4.17;;;26.40;89.80;;;;;;6328306;28;20221;-59
2023/06/09 10:05:16;;;;;;;5.20;4.80;;;26.70;88.90;;;;;;6328238;28;20233;-60
2023/06/09 10:08:24;;;;;;;4.93;4.53;;;27.10;86.40;;;;;;6327939;28;20294;-60
2023/06/09 10:11:31;;;;;;;5.40;5.00;;;27.20;85.80;;;;;;6327420;28;20662;-59
2023/06/09 10:14:35;;;;;;;6.30;5.80;;;27.10;85.00;;;;;;6327803;28;20222;-59
2023/06/09 10:17:40;;;;;;;4.73;4.33;;;27.10;85.20;;;;;;6326836;28;20693;-59
2023/06/09 10:20:44;;;;;;;5.37;4.63;;;27.10;84.90;;;;;;6327253;28;20241;-59
2023/06/09 10:23:50;;;;;;;4.67;4.37;;;27.10;85.00;;;;;;6327290;28;20226;-59
2023/06/09 10:26:55;;;;;;;4.63;4.30;;;27.30;84.30;;;;;;6327042;28;20547;-59
2023/06/09 10:29:58;;;;;;;4.83;4.43;;;27.40;82.90;;;;;;6326700;28;20687;-59
2023/06/09 10:33:09;;;;;;;4.40;4.10;;;27.10;82.40;;;;;;6327405;28;20230;-59
2023/06/09 10:36:12;;;;;;;5.33;4.93;;;26.70;82.50;;;;;;6326937;28;20636;-59
2023/06/09 10:39:18;;;;;;;4.70;4.27;;;26.90;82.60;;;;;;6326524;28;20354;-60
2023/06/09 10:42:33;;;;;;;5.10;4.70;;;27.20;82.00;;;;;;6326476;28;20234;-60
2023/06/09 10:45:51;;;;;;;4.67;4.33;;;27.50;81.20;;;;;;6326239;28;20567;-60
2023/06/09 10:48:54;;;;;;;4.67;4.37;;;27.50;80.70;;;;;;6326346;28;20225;-60
2023/06/09 10:51:57;;;;;;;5.07;4.60;;;27.60;81.10;;;;;;6326560;28;20221;-60
2023/06/09 10:55:15;;;;;;;4.53;4.20;;;27.40;80.60;;;;;;6326173;28;20226;-60
2023/06/09 10:58:36;;;;;;;4.77;4.47;;;27.30;80.10;;;;;;6326124;28;20221;-60
2023/06/09 11:02:15;;;;;;;4.80;4.50;;;27.40;80.90;;;;;;6324849;28;20848;-60
2023/06/09 11:05:20;;;;;;;4.77;4.37;;;27.60;80.10;;;;;;6326610;28;20314;-60
2023/06/09 11:08:23;;;;;;;4.40;4.00;;;27.50;80.10;;;;;;6326279;28;20225;-60
2023/06/09 11:11:48;;;;;;;5.23;4.90;;;27.50;80.50;;;;;;6325758;28;20225;-60
2023/06/09 11:14:52;;;;;;;4.87;4.47;;;26.70;82.80;;;;;;6326150;28;20234;-60
2023/06/09 11:17:55;;;;;;;4.77;4.37;;;26.70;82.00;;;;;;6311907;28;20234;-60
2023/06/09 11:21:20;;;;;;;5.20;4.77;;;26.90;82.00;;;;;;6325661;28;20237;-60
2023/06/09 11:24:23;;;;;;;4.50;4.10;;;27.10;80.80;;;;;;6307943;28;20363;-61
2023/06/09 11:27:28;;;;;;;4.00;3.80;;;27.10;80.70;;;;;;6308968;28;20248;-62
2023/06/09 11:30:32;;;;;;;4.73;4.33;;;27.30;80.40;;;;;;6313547;28;20217;-60
2023/06/09 11:33:45;;;;;;;4.50;4.20;;;27.40;78.40;;;;;;6318093;28;20222;-61
2023/06/09 11:36:49;;;;;;;4.63;4.33;;;27.20;81.00;;;;;;6321869;28;20311;-60
2023/06/09 11:39:52;;;;;;;5.40;5.00;;;27.30;80.20;;;;;;6322271;28;20222;-60
2023/06/09 11:42:58;;;;;;;5.20;4.80;;;27.30;80.40;;;;;;6323567;28;20373;-60
2023/06/09 11:46:03;;;;;;;5.40;4.90;;;27.20;80.40;;;;;;6323513;28;20233;-60
2023/06/09 11:49:08;;;;;;;4.93;4.37;;;27.10;80.50;;;;;;6325240;28;20240;-60
2023/06/09 11:52:12;;;;;;;5.33;4.93;;;27.20;80.40;;;;;;6325484;28;20225;-60
2023/06/09 11:55:16;;;;;;;4.97;4.67;;;27.10;79.40;;;;;;6324891;28;20233;-60
2023/06/09 11:58:21;;;;;;;4.30;4.00;;;27.10;79.30;;;;;;6324828;28;20237;-60
2023/06/09 12:01:31;;;;;;;5.70;5.20;;;27.40;77.60;;;;;;6324540;28;20271;-60
2023/06/09 12:04:38;;;;;;;4.80;4.40;;;27.60;78.10;;;;;;6324298;28;20236;-60
2023/06/09 12:07:44;;;;;;;5.40;5.00;;;27.60;77.90;;;;;;6324591;28;20212;-60
2023/06/09 12:10:47;;;;;;;5.27;4.87;;;27.60;78.30;;;;;;6323994;28;20229;-60
2023/06/09 12:13:52;;;;;;;4.97;4.57;;;27.30;78.90;;;;;;6324552;28;20649;-60
2023/06/09 12:16:56;;;;;;;5.47;5.07;;;27.50;78.50;;;;;;6325190;28;20197;-60
2023/06/09 12:20:19;;;;;;;5.30;4.80;;;27.50;77.40;;;;;;6320794;28;20707;-60
2023/06/09 12:23:28;;;;;;;5.07;4.67;;;27.80;76.60;;;;;;6325145;28;20239;-60
2023/06/09 12:26:38;;;;;;;5.53;5.13;;;27.90;76.80;;;;;;6324439;28;20690;-61
2023/06/09 12:29:43;;;;;;;5.03;4.73;;;27.90;76.70;;;;;;6324070;28;20363;-61
2023/06/09 12:32:46;;;;;;;4.63;4.23;;;27.90;77.40;;;;;;6324148;28;20230;-61
2023/06/09 12:35:51;;;;;;;5.30;4.90;;;27.60;77.10;;;;;;6324299;28;20229;-61
2023/06/09 12:38:54;;;;;;;4.93;4.63;;;27.60;76.40;;;;;;6323981;28;20275;-61
2023/06/09 12:41:57;;;;;;;8.00;5.70;;;27.50;75.70;;;;;;6323505;28;20233;-60
2023/06/09 12:45:02;;;;;;;5.27;4.77;;;27.00;77.30;;;;;;6324269;28;20331;-60
2023/06/09 12:48:08;;;;;;;5.70;5.30;;;26.90;77.70;;;;;;6323978;28;20549;-60
2023/06/09 12:51:11;;;;;;;5.30;4.90;;;26.90;77.20;;;;;;6324146;28;20499;-60
2023/06/09 12:54:15;;;;;;;5.03;4.63;;;27.00;76.80;;;;;;6323931;28;20237;-61
2023/06/09 12:57:18;;;;;;;4.73;4.43;;;27.00;78.40;;;;;;6324115;28;20355;-61
2023/06/09 13:00:23;;;;;;;5.03;4.63;;;27.20;78.40;;;;;;6324379;28;20235;-61
2023/06/09 13:03:27;;;;;;;5.63;5.23;;;27.30;78.00;;;;;;6323698;28;20819;-60
2023/06/09 13:06:32;;;;;;;5.10;4.70;;;27.30;77.80;;;;;;6324121;28;20585;-60
2023/06/09 13:09:35;;;;;;;4.80;4.40;;;27.10;78.20;;;;;;6323803;28;20255;-60
2023/06/09 13:12:38;;;;;;;5.10;4.67;;;26.90;78.70;;;;;;6324003;28;20308;-60
2023/06/09 13:15:43;;;;;;;4.80;4.50;;;26.90;79.70;;;;;;6323768;28;20230;-60
2023/06/09 13:18:46;;;;;;;5.00;4.60;;;26.80;79.50;;;;;;6323810;28;20559;-60
2023/06/09 13:21:49;;;;;;;6.13;5.50;;;26.80;81.30;;;;;;6323756;28;20275;-60
2023/06/09 13:24:52;;;;;;;6.27;5.63;;;26.50;85.50;;;;;;6310989;28;20230;-59
2023/06/09 13:27:55;;;;;;;5.33;4.93;;;26.10;88.40;;;;;;6325996;28;20232;-60
2023/06/09 13:31:00;;;;;;;4.90;3.83;;;25.70;89.90;;;;;;6305605;28;20234;-60
2023/06/09 13:34:04;;;;;;;6.00;5.40;;;25.20;88.60;;;;;;6324304;28;20234;-60
2023/06/09 13:37:07;;;;;;;7.80;6.20;;;24.70;93.30;;;;;;6327697;28;20226;-60
2023/06/09 13:40:11;;;;;;;9.57;6.10;;;23.50;96.10;;;;;;6327832;28;20531;-60
2023/06/09 13:43:16;;;;;;;10.30;6.90;;;22.40;98.20;;;;;;6325039;28;20317;-61
2023/06/09 13:46:20;;;;;;;6.70;6.10;;;21.90;99.90;;;;;;6328077;28;20643;-60
2023/06/09 13:49:23;;;;;;;6.13;5.43;;;21.80;99.90;;;;;;6327479;28;20565;-60
2023/06/09 13:52:27;;;;;;;6.10;5.50;;;21.90;99.90;;;;;;6327970;28;20244;-60
2023/06/09 13:55:30;;;;;;;6.40;5.90;;;22.30;99.90;;;;;;6322071;28;20222;-61
2023/06/09 13:58:33;;;;;;;7.10;6.50;;;22.60;99.90;;;;;;6323270;28;20251;-61
2023/06/09 14:01:42;;;;;;;7.27;6.57;;;22.80;99.90;;;;;;6325389;28;20640;-61
2023/06/09 14:04:46;;;;;;;7.77;7.07;;;22.90;99.90;;;;;;6326467;28;20509;-61
2023/06/09 14:07:49;;;;;;;6.70;6.20;;;23.00;99.90;;;;;;6321784;28;20267;-61
2023/06/09 14:10:52;;;;;;;7.43;6.77;;;23.20;99.90;;;;;;6326497;28;20229;-61
2023/06/09 14:13:56;;;;;;;7.73;7.03;;;23.30;99.90;;;;;;6316813;28;20291;-63
2023/06/09 14:17:00;;;;;;;7.37;6.67;;;23.30;99.90;;;;;;6309250;28;20232;-63
2023/06/09 14:20:05;;;;;;;6.60;6.00;;;23.30;99.90;;;;;;6301581;28;20231;-63
2023/06/09 14:23:11;;;;;;;6.40;5.90;;;23.40;99.90;;;;;;6306004;28;20340;-63
2023/06/09 14:26:14;;;;;;;6.63;6.03;;;23.50;99.90;;;;;;6326686;28;20230;-63
2023/06/09 14:29:17;;;;;;;7.07;6.47;;;23.60;99.90;;;;;;6318726;28;20226;-63
2023/06/09 14:32:22;;;;;;;6.13;5.67;;;23.70;99.90;;;;;;6330848;28;20382;-63
2023/06/09 14:35:27;;;;;;;8.70;7.00;;;23.70;99.90;;;;;;6345653;28;20237;-62
2023/06/09 14:38:30;;;;;;;7.13;6.57;;;23.50;99.90;;;;;;6325947;28;20309;-62
2023/06/09 14:41:33;;;;;;;8.17;7.37;;;23.50;99.90;;;;;;6319060;28;20692;-64
2023/06/09 14:44:36;;;;;;;7.47;6.73;;;23.40;99.90;;;;;;6322267;28;20241;-63
2023/06/09 14:47:41;;;;;;;7.73;7.10;;;23.30;99.90;;;;;;6325736;28;20261;-64
2023/06/09 14:50:46;;;;;;;7.10;6.43;;;23.20;99.90;;;;;;6325903;28;20366;-63
2023/06/09 14:53:49;;;;;;;6.90;6.40;;;23.30;99.90;;;;;;6319703;28;20767;-63
2023/06/09 14:56:53;;;;;;;6.90;5.73;;;23.40;99.90;;;;;;6321558;28;20218;-63
2023/06/09 14:59:56;;;;;;;7.07;6.47;;;23.40;99.90;;;;;;6323586;28;20233;-63
2023/06/09 15:03:02;;;;;;;6.90;6.20;;;23.30;99.90;;;;;;6321797;28;20230;-63
2023/06/09 15:06:05;;;;;;;7.20;6.60;;;23.30;99.90;;;;;;6308099;28;20230;-63
2023/06/09 15:09:11;;;;;;;7.33;6.23;;;23.50;99.90;;;;;;6300603;28;20241;-63
2023/06/09 15:12:16;;;;;;;7.17;6.57;;;23.60;99.90;;;;;;6300814;28;20245;-63
2023/06/09 15:15:22;;;;;;;6.70;6.00;;;23.70;99.90;;;;;;6301049;28;20231;-63
2023/06/09 15:18:26;;;;;;;6.27;5.77;;;23.80;99.90;;;;;;6319191;28;20236;-63
2023/06/09 15:21:30;;;;;;;5.80;5.40;;;23.90;99.90;;;;;;6325240;28;20542;-63
2023/06/09 15:24:33;;;;;;;6.83;6.23;;;23.90;99.90;;;;;;6324438;28;20599;-63
2023/06/09 15:27:36;;;;;;;6.23;5.60;;;24.10;99.90;;;;;;6325318;28;20545;-63
2023/06/09 15:30:42;;;;;;;7.07;6.37;;;24.30;99.90;;;;;;6342650;28;20225;-63
2023/06/09 15:33:47;;;;;;;8.03;6.40;;;24.60;99.90;;;;;;6332883;27;20230;-63
2023/06/09 15:36:50;;;;;;;6.73;6.23;;;24.80;99.90;;;;;;6325371;28;20226;-63
2023/06/09 15:39:54;;;;;;;5.93;5.43;;;25.10;99.90;;;;;;6325724;28;20245;-63
2023/06/09 15:42:57;;;;;;;5.80;5.40;;;25.30;99.90;;;;;;6325242;28;20279;-63
2023/06/09 15:46:00;;;;;;;6.10;5.60;;;25.40;99.90;;;;;;6325228;28;20670;-63
2023/06/09 15:49:07;;;;;;;6.10;5.53;;;25.50;99.90;;;;;;6324214;28;20229;-63
2023/06/09 15:52:10;;;;;;;5.83;5.33;;;25.60;99.90;;;;;;6324926;28;20236;-63
2023/06/09 15:55:14;;;;;;;5.93;5.43;;;25.60;99.90;;;;;;6325287;28;20218;-63
2023/06/09 15:58:17;;;;;;;6.00;5.50;;;25.60;99.90;;;;;;6325308;28;20221;-64
2023/06/09 16:01:23;;;;;;;5.27;4.87;;;25.80;99.90;;;;;;6324782;28;20236;-63